sensor_id;sensor_type;location;lat;lon;timestamp;temperature;humidity
19974;DHT22;10148;47.694;9.442;2022-07-18T00:00:58;21.20;89.30
19974;DHT22;10148;47.694;9.442;2022-07-18T00:03:24;21.10;89.50
19974;DHT22;10148;47.694;9.442;2022-07-18T00:05:49;21.00;89.90
19974;DHT22;10148;47.694;9.442;2022-07-18T00:08:15;21.00;90.10
19974;DHT22;10148;47.694;9.442;2022-07-18T00:10:41;20.90;90.20
19974;DHT22;10148;47.694;9.442;2022-07-18T00:13:07;20.80;90.20
19974;DHT22;10148;47.694;9.442;2022-07-18T00:15:32;20.80;90.40
19974;DHT22;10148;47.694;9.442;2022-07-18T00:17:58;20.80;90.50
19974;DHT22;10148;47.694;9.442;2022-07-18T00:20:23;20.80;90.50
19974;DHT22;10148;47.694;9.442;2022-07-18T00:22:49;20.70;90.40
19974;DHT22;10148;47.694;9.442;2022-07-18T00:25:15;20.70;90.50
19974;DHT22;10148;47.694;9.442;2022-07-18T00:27:40;20.70;90.50
19974;DHT22;10148;47.694;9.442;2022-07-18T00:30:06;20.60;90.60
19974;DHT22;10148;47.694;9.442;2022-07-18T00:32:33;20.60;91.00
19974;DHT22;10148;47.694;9.442;2022-07-18T00:34:59;20.60;90.70
19974;DHT22;10148;47.694;9.442;2022-07-18T00:37:25;20.60;90.60
19974;DHT22;10148;47.694;9.442;2022-07-18T00:39:50;20.60;90.70
19974;DHT22;10148;47.694;9.442;2022-07-18T00:42:16;20.50;90.70
19974;DHT22;10148;47.694;9.442;2022-07-18T00:44:42;20.50;90.80
19974;DHT22;10148;47.694;9.442;2022-07-18T00:47:07;20.50;90.80
19974;DHT22;10148;47.694;9.442;2022-07-18T00:49:33;20.50;90.90
19974;DHT22;10148;47.694;9.442;2022-07-18T00:51:59;20.50;91.00
19974;DHT22;10148;47.694;9.442;2022-07-18T00:54:25;20.40;91.10
19974;DHT22;10148;47.694;9.442;2022-07-18T00:56:51;20.40;91.20
19974;DHT22;10148;47.694;9.442;2022-07-18T00:59:17;20.30;91.30
19974;DHT22;10148;47.694;9.442;2022-07-18T01:01:43;20.30;91.50
19974;DHT22;10148;47.694;9.442;2022-07-18T01:04:20;20.20;91.70
19974;DHT22;10148;47.694;9.442;2022-07-18T01:06:47;20.10;91.80
19974;DHT22;10148;47.694;9.442;2022-07-18T01:09:13;20.00;91.70
19974;DHT22;10148;47.694;9.442;2022-07-18T01:11:39;20.00;91.80
19974;DHT22;10148;47.694;9.442;2022-07-18T01:14:06;19.90;92.00
19974;DHT22;10148;47.694;9.442;2022-07-18T01:16:33;19.90;92.00
19974;DHT22;10148;47.694;9.442;2022-07-18T01:18:59;19.80;92.20
19974;DHT22;10148;47.694;9.442;2022-07-18T01:21:25;19.70;92.20
19974;DHT22;10148;47.694;9.442;2022-07-18T01:23:51;19.70;92.40
19974;DHT22;10148;47.694;9.442;2022-07-18T01:26:17;19.60;92.70
19974;DHT22;10148;47.694;9.442;2022-07-18T01:28:44;19.50;92.90
19974;DHT22;10148;47.694;9.442;2022-07-18T01:31:10;19.50;93.10
19974;DHT22;10148;47.694;9.442;2022-07-18T01:33:36;19.30;93.20
19974;DHT22;10148;47.694;9.442;2022-07-18T01:36:04;19.30;93.40
19974;DHT22;10148;47.694;9.442;2022-07-18T01:38:31;19.30;93.60
19974;DHT22;10148;47.694;9.442;2022-07-18T01:40:58;19.20;93.70
19974;DHT22;10148;47.694;9.442;2022-07-18T01:43:25;19.20;93.80
19974;DHT22;10148;47.694;9.442;2022-07-18T01:45:50;19.10;93.80
19974;DHT22;10148;47.694;9.442;2022-07-18T01:48:16;19.10;93.80
19974;DHT22;10148;47.694;9.442;2022-07-18T01:50:42;19.00;93.90
19974;DHT22;10148;47.694;9.442;2022-07-18T01:53:08;19.00;93.90
19974;DHT22;10148;47.694;9.442;2022-07-18T01:55:33;19.00;94.00
19974;DHT22;10148;47.694;9.442;2022-07-18T01:57:59;19.00;94.00
19974;DHT22;10148;47.694;9.442;2022-07-18T02:00:25;19.00;94.10
19974;DHT22;10148;47.694;9.442;2022-07-18T02:02:50;18.90;94.20
19974;DHT22;10148;47.694;9.442;2022-07-18T02:05:16;18.90;94.20
19974;DHT22;10148;47.694;9.442;2022-07-18T02:07:42;18.90;94.30
19974;DHT22;10148;47.694;9.442;2022-07-18T02:10:13;18.90;94.50
19974;DHT22;10148;47.694;9.442;2022-07-18T02:12:39;18.90;94.60
19974;DHT22;10148;47.694;9.442;2022-07-18T02:15:06;18.80;94.70
19974;DHT22;10148;47.694;9.442;2022-07-18T02:17:32;18.80;94.80
19974;DHT22;10148;47.694;9.442;2022-07-18T02:19:58;18.80;94.80
19974;DHT22;10148;47.694;9.442;2022-07-18T02:22:24;18.70;94.90
19974;DHT22;10148;47.694;9.442;2022-07-18T02:24:50;18.70;94.90
19974;DHT22;10148;47.694;9.442;2022-07-18T02:27:16;18.60;95.10
19974;DHT22;10148;47.694;9.442;2022-07-18T02:29:42;18.60;95.20
19974;DHT22;10148;47.694;9.442;2022-07-18T02:32:08;18.50;95.40
19974;DHT22;10148;47.694;9.442;2022-07-18T02:34:34;18.50;95.50
19974;DHT22;10148;47.694;9.442;2022-07-18T02:37:00;18.50;95.60
19974;DHT22;10148;47.694;9.442;2022-07-18T02:39:25;18.40;95.70
19974;DHT22;10148;47.694;9.442;2022-07-18T02:41:51;18.40;95.80
19974;DHT22;10148;47.694;9.442;2022-07-18T02:44:17;18.40;95.80
19974;DHT22;10148;47.694;9.442;2022-07-18T02:46:43;18.40;96.20
19974;DHT22;10148;47.694;9.442;2022-07-18T02:49:09;18.40;95.90
19974;DHT22;10148;47.694;9.442;2022-07-18T02:51:34;18.30;95.90
19974;DHT22;10148;47.694;9.442;2022-07-18T02:54:00;18.30;96.00
19974;DHT22;10148;47.694;9.442;2022-07-18T02:56:26;18.20;96.20
19974;DHT22;10148;47.694;9.442;2022-07-18T02:58:52;18.20;96.40
19974;DHT22;10148;47.694;9.442;2022-07-18T03:01:17;18.30;96.40
19974;DHT22;10148;47.694;9.442;2022-07-18T03:03:43;18.20;96.40
19974;DHT22;10148;47.694;9.442;2022-07-18T03:06:09;18.10;96.40
19974;DHT22;10148;47.694;9.442;2022-07-18T03:08:34;18.10;96.50
19974;DHT22;10148;47.694;9.442;2022-07-18T03:11:01;18.00;96.60
19974;DHT22;10148;47.694;9.442;2022-07-18T03:13:26;18.00;96.80
19974;DHT22;10148;47.694;9.442;2022-07-18T03:15:52;17.90;96.90
19974;DHT22;10148;47.694;9.442;2022-07-18T03:18:18;17.90;97.10
19974;DHT22;10148;47.694;9.442;2022-07-18T03:20:43;17.80;97.20
19974;DHT22;10148;47.694;9.442;2022-07-18T03:23:09;17.80;97.30
19974;DHT22;10148;47.694;9.442;2022-07-18T03:25:35;17.80;97.30
19974;DHT22;10148;47.694;9.442;2022-07-18T03:28:01;17.80;97.50
19974;DHT22;10148;47.694;9.442;2022-07-18T03:30:27;17.80;97.60
19974;DHT22;10148;47.694;9.442;2022-07-18T03:32:52;17.70;97.80
19974;DHT22;10148;47.694;9.442;2022-07-18T03:35:18;17.70;98.00
19974;DHT22;10148;47.694;9.442;2022-07-18T03:37:44;17.70;98.10
19974;DHT22;10148;47.694;9.442;2022-07-18T03:40:10;17.70;98.30
19974;DHT22;10148;47.694;9.442;2022-07-18T03:42:39;17.70;98.30
19974;DHT22;10148;47.694;9.442;2022-07-18T03:45:07;17.60;98.50
19974;DHT22;10148;47.694;9.442;2022-07-18T03:47:33;17.50;98.80
19974;DHT22;10148;47.694;9.442;2022-07-18T03:49:58;17.50;99.00
19974;DHT22;10148;47.694;9.442;2022-07-18T03:52:24;17.50;99.10
19974;DHT22;10148;47.694;9.442;2022-07-18T03:54:50;17.40;99.10
19974;DHT22;10148;47.694;9.442;2022-07-18T03:57:15;17.40;99.10
19974;DHT22;10148;47.694;9.442;2022-07-18T03:59:41;17.40;99.30
19974;DHT22;10148;47.694;9.442;2022-07-18T04:02:06;17.40;99.30
19974;DHT22;10148;47.694;9.442;2022-07-18T04:04:32;17.40;99.30
19974;DHT22;10148;47.694;9.442;2022-07-18T04:06:58;17.40;99.40
19974;DHT22;10148;47.694;9.442;2022-07-18T04:09:25;17.40;99.70
19974;DHT22;10148;47.694;9.442;2022-07-18T04:11:51;17.40;99.90
19974;DHT22;10148;47.694;9.442;2022-07-18T04:14:16;17.40;99.90
19974;DHT22;10148;47.694;9.442;2022-07-18T04:16:42;17.50;99.90
19974;DHT22;10148;47.694;9.442;2022-07-18T04:19:09;17.50;99.90
19974;DHT22;10148;47.694;9.442;2022-07-18T04:21:34;17.50;99.90
19974;DHT22;10148;47.694;9.442;2022-07-18T04:24:00;17.50;99.90
19974;DHT22;10148;47.694;9.442;2022-07-18T04:26:26;17.50;99.90
19974;DHT22;10148;47.694;9.442;2022-07-18T04:28:51;17.50;99.90
19974;DHT22;10148;47.694;9.442;2022-07-18T04:31:17;17.50;99.90
19974;DHT22;10148;47.694;9.442;2022-07-18T04:33:42;17.50;99.90
19974;DHT22;10148;47.694;9.442;2022-07-18T04:36:08;17.60;99.90
19974;DHT22;10148;47.694;9.442;2022-07-18T04:38:34;17.60;99.90
19974;DHT22;10148;47.694;9.442;2022-07-18T04:41:05;17.60;99.90
19974;DHT22;10148;47.694;9.442;2022-07-18T04:43:31;17.70;99.90
19974;DHT22;10148;47.694;9.442;2022-07-18T04:45:57;17.70;99.90
19974;DHT22;10148;47.694;9.442;2022-07-18T04:48:22;17.70;99.90
19974;DHT22;10148;47.694;9.442;2022-07-18T04:50:48;17.70;99.90
19974;DHT22;10148;47.694;9.442;2022-07-18T04:53:14;17.70;99.90
19974;DHT22;10148;47.694;9.442;2022-07-18T04:55:39;17.80;99.90
19974;DHT22;10148;47.694;9.442;2022-07-18T04:58:05;17.80;99.90
19974;DHT22;10148;47.694;9.442;2022-07-18T05:00:30;17.80;99.90
19974;DHT22;10148;47.694;9.442;2022-07-18T05:02:57;17.80;99.90
19974;DHT22;10148;47.694;9.442;2022-07-18T05:05:24;17.90;99.90
19974;DHT22;10148;47.694;9.442;2022-07-18T05:07:50;17.90;99.90
19974;DHT22;10148;47.694;9.442;2022-07-18T05:10:18;17.90;99.90
19974;DHT22;10148;47.694;9.442;2022-07-18T05:12:49;18.00;99.90
19974;DHT22;10148;47.694;9.442;2022-07-18T05:15:17;18.00;99.90
19974;DHT22;10148;47.694;9.442;2022-07-18T05:17:43;18.10;99.90
19974;DHT22;10148;47.694;9.442;2022-07-18T05:20:11;18.10;99.90
19974;DHT22;10148;47.694;9.442;2022-07-18T05:22:37;18.20;99.90
19974;DHT22;10148;47.694;9.442;2022-07-18T05:25:04;18.20;99.90
19974;DHT22;10148;47.694;9.442;2022-07-18T05:27:30;18.30;99.90
19974;DHT22;10148;47.694;9.442;2022-07-18T05:29:56;18.40;99.90
19974;DHT22;10148;47.694;9.442;2022-07-18T05:32:21;18.40;99.90
19974;DHT22;10148;47.694;9.442;2022-07-18T05:34:47;18.50;99.90
19974;DHT22;10148;47.694;9.442;2022-07-18T05:37:13;18.60;99.90
19974;DHT22;10148;47.694;9.442;2022-07-18T05:39:39;18.60;99.90
19974;DHT22;10148;47.694;9.442;2022-07-18T05:42:04;18.70;99.90
19974;DHT22;10148;47.694;9.442;2022-07-18T05:44:30;18.70;99.90
19974;DHT22;10148;47.694;9.442;2022-07-18T05:46:56;18.70;99.90
19974;DHT22;10148;47.694;9.442;2022-07-18T05:49:21;18.60;99.90
19974;DHT22;10148;47.694;9.442;2022-07-18T05:51:47;18.70;99.90
19974;DHT22;10148;47.694;9.442;2022-07-18T05:54:13;18.70;99.90
19974;DHT22;10148;47.694;9.442;2022-07-18T05:56:45;18.80;99.90
19974;DHT22;10148;47.694;9.442;2022-07-18T05:59:11;18.90;99.90
19974;DHT22;10148;47.694;9.442;2022-07-18T06:01:36;19.00;99.90
19974;DHT22;10148;47.694;9.442;2022-07-18T06:04:02;19.00;99.90
19974;DHT22;10148;47.694;9.442;2022-07-18T06:06:28;19.10;99.90
19974;DHT22;10148;47.694;9.442;2022-07-18T06:08:54;19.10;99.90
19974;DHT22;10148;47.694;9.442;2022-07-18T06:11:20;19.30;99.90
19974;DHT22;10148;47.694;9.442;2022-07-18T06:13:45;19.30;99.90
19974;DHT22;10148;47.694;9.442;2022-07-18T06:16:11;19.40;99.90
19974;DHT22;10148;47.694;9.442;2022-07-18T06:18:36;19.50;99.90
19974;DHT22;10148;47.694;9.442;2022-07-18T06:21:03;19.50;99.90
19974;DHT22;10148;47.694;9.442;2022-07-18T06:23:29;19.60;99.90
19974;DHT22;10148;47.694;9.442;2022-07-18T06:25:56;19.60;99.90
19974;DHT22;10148;47.694;9.442;2022-07-18T06:28:23;19.70;99.90
19974;DHT22;10148;47.694;9.442;2022-07-18T06:30:51;19.70;99.90
19974;DHT22;10148;47.694;9.442;2022-07-18T06:33:16;19.80;99.90
19974;DHT22;10148;47.694;9.442;2022-07-18T06:35:42;19.90;99.90
19974;DHT22;10148;47.694;9.442;2022-07-18T06:38:08;20.00;99.90
19974;DHT22;10148;47.694;9.442;2022-07-18T06:40:33;20.00;99.90
19974;DHT22;10148;47.694;9.442;2022-07-18T06:42:59;20.10;99.90
19974;DHT22;10148;47.694;9.442;2022-07-18T06:45:25;20.20;99.90
19974;DHT22;10148;47.694;9.442;2022-07-18T06:47:50;20.40;99.90
19974;DHT22;10148;47.694;9.442;2022-07-18T06:50:16;20.50;99.90
19974;DHT22;10148;47.694;9.442;2022-07-18T06:52:43;20.50;99.90
19974;DHT22;10148;47.694;9.442;2022-07-18T06:55:10;20.60;99.90
19974;DHT22;10148;47.694;9.442;2022-07-18T06:57:37;20.70;99.90
19974;DHT22;10148;47.694;9.442;2022-07-18T07:00:04;20.70;99.90
19974;DHT22;10148;47.694;9.442;2022-07-18T07:02:31;20.70;99.90
19974;DHT22;10148;47.694;9.442;2022-07-18T07:04:56;20.70;99.90
19974;DHT22;10148;47.694;9.442;2022-07-18T07:07:22;20.80;99.90
19974;DHT22;10148;47.694;9.442;2022-07-18T07:09:47;20.80;99.90
19974;DHT22;10148;47.694;9.442;2022-07-18T07:12:13;20.90;99.90
19974;DHT22;10148;47.694;9.442;2022-07-18T07:14:39;20.90;99.90
19974;DHT22;10148;47.694;9.442;2022-07-18T07:17:04;21.00;99.90
19974;DHT22;10148;47.694;9.442;2022-07-18T07:19:30;21.10;99.90
19974;DHT22;10148;47.694;9.442;2022-07-18T07:21:56;21.20;99.90
19974;DHT22;10148;47.694;9.442;2022-07-18T07:24:22;21.30;99.90
19974;DHT22;10148;47.694;9.442;2022-07-18T07:26:48;21.40;99.90
19974;DHT22;10148;47.694;9.442;2022-07-18T07:29:14;21.50;99.90
19974;DHT22;10148;47.694;9.442;2022-07-18T07:31:40;21.60;99.90
19974;DHT22;10148;47.694;9.442;2022-07-18T07:34:06;21.60;99.90
19974;DHT22;10148;47.694;9.442;2022-07-18T07:36:32;21.70;99.90
19974;DHT22;10148;47.694;9.442;2022-07-18T07:38:57;22.00;99.90
19974;DHT22;10148;47.694;9.442;2022-07-18T07:41:23;22.10;99.90
19974;DHT22;10148;47.694;9.442;2022-07-18T07:43:49;22.30;99.90
19974;DHT22;10148;47.694;9.442;2022-07-18T07:46:14;22.20;99.90
19974;DHT22;10148;47.694;9.442;2022-07-18T07:48:40;22.30;99.90
19974;DHT22;10148;47.694;9.442;2022-07-18T07:51:06;22.30;99.90
19974;DHT22;10148;47.694;9.442;2022-07-18T07:53:32;22.30;99.90
19974;DHT22;10148;47.694;9.442;2022-07-18T07:55:58;22.30;99.90
19974;DHT22;10148;47.694;9.442;2022-07-18T07:58:23;22.40;99.90
19974;DHT22;10148;47.694;9.442;2022-07-18T08:00:49;22.70;99.90
19974;DHT22;10148;47.694;9.442;2022-07-18T08:03:14;22.90;99.90
19974;DHT22;10148;47.694;9.442;2022-07-18T08:05:50;22.90;99.90
19974;DHT22;10148;47.694;9.442;2022-07-18T08:08:16;23.00;99.90
19974;DHT22;10148;47.694;9.442;2022-07-18T08:10:42;23.20;99.90
19974;DHT22;10148;47.694;9.442;2022-07-18T08:13:08;23.20;99.90
19974;DHT22;10148;47.694;9.442;2022-07-18T08:15:34;23.30;99.90
19974;DHT22;10148;47.694;9.442;2022-07-18T08:18:01;23.40;99.90
19974;DHT22;10148;47.694;9.442;2022-07-18T08:20:26;23.40;99.90
19974;DHT22;10148;47.694;9.442;2022-07-18T08:23:10;23.40;99.90
19974;DHT22;10148;47.694;9.442;2022-07-18T08:25:38;23.40;99.90
19974;DHT22;10148;47.694;9.442;2022-07-18T08:28:04;23.50;99.90
19974;DHT22;10148;47.694;9.442;2022-07-18T08:30:30;23.50;99.90
19974;DHT22;10148;47.694;9.442;2022-07-18T08:32:56;23.50;99.90
19974;DHT22;10148;47.694;9.442;2022-07-18T08:35:22;23.60;99.90
19974;DHT22;10148;47.694;9.442;2022-07-18T08:37:48;23.70;99.90
19974;DHT22;10148;47.694;9.442;2022-07-18T08:40:14;23.80;99.90
19974;DHT22;10148;47.694;9.442;2022-07-18T08:42:39;23.80;99.90
19974;DHT22;10148;47.694;9.442;2022-07-18T08:45:06;24.00;99.90
19974;DHT22;10148;47.694;9.442;2022-07-18T08:47:32;24.00;99.90
19974;DHT22;10148;47.694;9.442;2022-07-18T08:49:59;24.10;99.90
19974;DHT22;10148;47.694;9.442;2022-07-18T08:52:26;24.20;99.90
19974;DHT22;10148;47.694;9.442;2022-07-18T08:54:52;24.20;99.90
19974;DHT22;10148;47.694;9.442;2022-07-18T08:57:18;24.20;99.90
19974;DHT22;10148;47.694;9.442;2022-07-18T08:59:44;24.30;99.90
19974;DHT22;10148;47.694;9.442;2022-07-18T09:02:10;24.40;99.90
19974;DHT22;10148;47.694;9.442;2022-07-18T09:04:40;24.50;99.90
19974;DHT22;10148;47.694;9.442;2022-07-18T09:07:07;24.60;99.90
19974;DHT22;10148;47.694;9.442;2022-07-18T09:09:39;24.80;99.90
19974;DHT22;10148;47.694;9.442;2022-07-18T09:12:08;24.80;99.90
19974;DHT22;10148;47.694;9.442;2022-07-18T09:14:41;25.00;99.90
19974;DHT22;10148;47.694;9.442;2022-07-18T09:17:15;25.20;99.90
19974;DHT22;10148;47.694;9.442;2022-07-18T09:19:43;25.30;99.90
19974;DHT22;10148;47.694;9.442;2022-07-18T09:22:22;25.30;99.90
19974;DHT22;10148;47.694;9.442;2022-07-18T09:24:59;25.40;99.90
19974;DHT22;10148;47.694;9.442;2022-07-18T09:27:34;25.70;99.90
19974;DHT22;10148;47.694;9.442;2022-07-18T09:32:37;25.90;99.90
19974;DHT22;10148;47.694;9.442;2022-07-18T09:35:11;25.90;99.90
19974;DHT22;10148;47.694;9.442;2022-07-18T09:37:37;25.90;99.90
19974;DHT22;10148;47.694;9.442;2022-07-18T09:42:41;26.10;99.90
19974;DHT22;10148;47.694;9.442;2022-07-18T09:45:07;26.10;99.90
19974;DHT22;10148;47.694;9.442;2022-07-18T09:47:48;26.10;99.90
19974;DHT22;10148;47.694;9.442;2022-07-18T09:51:07;26.20;99.90
19974;DHT22;10148;47.694;9.442;2022-07-18T09:53:16;26.50;99.90
19974;DHT22;10148;47.694;9.442;2022-07-18T09:55:52;26.80;99.90
19974;DHT22;10148;47.694;9.442;2022-07-18T09:58:21;27.00;99.90
19974;DHT22;10148;47.694;9.442;2022-07-18T10:00:47;27.20;99.90
19974;DHT22;10148;47.694;9.442;2022-07-18T10:03:14;27.40;99.90
19974;DHT22;10148;47.694;9.442;2022-07-18T10:05:41;27.60;99.90
19974;DHT22;10148;47.694;9.442;2022-07-18T10:08:10;27.80;99.70
19974;DHT22;10148;47.694;9.442;2022-07-18T10:10:38;27.80;99.30
19974;DHT22;10148;47.694;9.442;2022-07-18T10:13:05;27.70;98.60
19974;DHT22;10148;47.694;9.442;2022-07-18T10:15:42;27.70;98.60
19974;DHT22;10148;47.694;9.442;2022-07-18T10:18:11;27.60;97.20
19974;DHT22;10148;47.694;9.442;2022-07-18T10:20:59;27.70;96.60
19974;DHT22;10148;47.694;9.442;2022-07-18T10:23:31;27.60;95.50
19974;DHT22;10148;47.694;9.442;2022-07-18T10:26:10;27.60;96.50
19974;DHT22;10148;47.694;9.442;2022-07-18T10:31:36;28.10;96.70
19974;DHT22;10148;47.694;9.442;2022-07-18T10:36:32;28.30;95.00
19974;DHT22;10148;47.694;9.442;2022-07-18T11:00:24;29.10;94.10
19974;DHT22;10148;47.694;9.442;2022-07-18T11:03:06;29.30;92.70
19974;DHT22;10148;47.694;9.442;2022-07-18T11:05:41;29.50;92.40
19974;DHT22;10148;47.694;9.442;2022-07-18T11:18:22;30.00;92.50
19974;DHT22;10148;47.694;9.442;2022-07-18T11:20:48;30.00;91.20
19974;DHT22;10148;47.694;9.442;2022-07-18T11:23:22;29.90;91.40
19974;DHT22;10148;47.694;9.442;2022-07-18T11:25:53;29.90;92.20
19974;DHT22;10148;47.694;9.442;2022-07-18T11:28:23;30.10;92.20
19974;DHT22;10148;47.694;9.442;2022-07-18T11:31:07;30.10;92.20
19974;DHT22;10148;47.694;9.442;2022-07-18T11:33:39;30.10;90.90
19974;DHT22;10148;47.694;9.442;2022-07-18T11:36:15;30.10;90.50
19974;DHT22;10148;47.694;9.442;2022-07-18T11:38:55;30.00;91.00
19974;DHT22;10148;47.694;9.442;2022-07-18T11:41:22;30.20;90.70
19974;DHT22;10148;47.694;9.442;2022-07-18T11:43:50;30.50;90.50
19974;DHT22;10148;47.694;9.442;2022-07-18T11:46:19;30.80;89.10
19974;DHT22;10148;47.694;9.442;2022-07-18T11:48:46;30.90;90.10
19974;DHT22;10148;47.694;9.442;2022-07-18T11:51:18;31.10;88.90
19974;DHT22;10148;47.694;9.442;2022-07-18T11:53:45;31.10;86.40
19974;DHT22;10148;47.694;9.442;2022-07-18T11:56:11;31.20;86.10
19974;DHT22;10148;47.694;9.442;2022-07-18T11:58:38;31.30;85.80
19974;DHT22;10148;47.694;9.442;2022-07-18T12:01:05;31.10;85.60
19974;DHT22;10148;47.694;9.442;2022-07-18T12:03:31;31.20;83.40
19974;DHT22;10148;47.694;9.442;2022-07-18T12:05:59;31.30;82.80
19974;DHT22;10148;47.694;9.442;2022-07-18T12:08:40;31.40;84.30
19974;DHT22;10148;47.694;9.442;2022-07-18T12:11:32;31.50;84.80
19974;DHT22;10148;47.694;9.442;2022-07-18T12:14:19;31.60;85.40
19974;DHT22;10148;47.694;9.442;2022-07-18T12:16:47;31.60;83.90
19974;DHT22;10148;47.694;9.442;2022-07-18T12:19:18;31.60;84.40
19974;DHT22;10148;47.694;9.442;2022-07-18T12:24:32;32.00;82.60
19974;DHT22;10148;47.694;9.442;2022-07-18T12:27:12;32.10;84.30
19974;DHT22;10148;47.694;9.442;2022-07-18T12:32:51;32.40;81.10
19974;DHT22;10148;47.694;9.442;2022-07-18T12:35:34;32.60;82.60
19974;DHT22;10148;47.694;9.442;2022-07-18T12:38:15;32.80;79.30
19974;DHT22;10148;47.694;9.442;2022-07-18T12:40:58;32.90;78.60
19974;DHT22;10148;47.694;9.442;2022-07-18T12:43:27;33.10;78.00
19974;DHT22;10148;47.694;9.442;2022-07-18T12:45:55;32.90;78.40
19974;DHT22;10148;47.694;9.442;2022-07-18T12:48:21;32.70;79.40
19974;DHT22;10148;47.694;9.442;2022-07-18T12:50:56;33.00;77.30
19974;DHT22;10148;47.694;9.442;2022-07-18T12:53:22;33.00;76.70
19974;DHT22;10148;47.694;9.442;2022-07-18T12:55:48;33.20;75.80
19974;DHT22;10148;47.694;9.442;2022-07-18T12:58:13;33.20;76.40
19974;DHT22;10148;47.694;9.442;2022-07-18T13:00:39;33.30;76.40
19974;DHT22;10148;47.694;9.442;2022-07-18T13:03:05;33.20;75.70
19974;DHT22;10148;47.694;9.442;2022-07-18T13:05:31;33.40;76.20
19974;DHT22;10148;47.694;9.442;2022-07-18T13:07:57;33.70;79.30
19974;DHT22;10148;47.694;9.442;2022-07-18T13:10:23;33.80;75.90
19974;DHT22;10148;47.694;9.442;2022-07-18T13:12:48;33.90;76.50
19974;DHT22;10148;47.694;9.442;2022-07-18T13:15:14;34.00;79.60
19974;DHT22;10148;47.694;9.442;2022-07-18T13:17:40;33.80;78.50
19974;DHT22;10148;47.694;9.442;2022-07-18T13:20:06;33.90;81.80
19974;DHT22;10148;47.694;9.442;2022-07-18T13:22:32;33.90;81.40
19974;DHT22;10148;47.694;9.442;2022-07-18T13:25:07;33.70;82.20
19974;DHT22;10148;47.694;9.442;2022-07-18T13:27:33;33.60;82.60
19974;DHT22;10148;47.694;9.442;2022-07-18T13:29:59;33.60;83.70
19974;DHT22;10148;47.694;9.442;2022-07-18T13:32:27;33.00;84.20
19974;DHT22;10148;47.694;9.442;2022-07-18T13:34:52;32.80;83.10
19974;DHT22;10148;47.694;9.442;2022-07-18T13:37:18;32.80;81.70
19974;DHT22;10148;47.694;9.442;2022-07-18T13:39:43;32.90;84.60
19974;DHT22;10148;47.694;9.442;2022-07-18T13:42:09;33.00;84.60
19974;DHT22;10148;47.694;9.442;2022-07-18T13:44:35;33.20;86.40
19974;DHT22;10148;47.694;9.442;2022-07-18T13:47:00;33.50;85.20
19974;DHT22;10148;47.694;9.442;2022-07-18T13:49:26;33.30;84.70
19974;DHT22;10148;47.694;9.442;2022-07-18T13:51:51;33.40;83.40
19974;DHT22;10148;47.694;9.442;2022-07-18T13:54:17;33.70;83.90
19974;DHT22;10148;47.694;9.442;2022-07-18T13:56:44;34.00;83.50
19974;DHT22;10148;47.694;9.442;2022-07-18T13:59:10;34.50;84.00
19974;DHT22;10148;47.694;9.442;2022-07-18T14:01:36;34.60;83.00
19974;DHT22;10148;47.694;9.442;2022-07-18T14:04:01;34.30;83.10
19974;DHT22;10148;47.694;9.442;2022-07-18T14:06:27;34.00;82.30
19974;DHT22;10148;47.694;9.442;2022-07-18T14:08:53;33.90;84.90
19974;DHT22;10148;47.694;9.442;2022-07-18T14:11:18;33.80;82.00
19974;DHT22;10148;47.694;9.442;2022-07-18T14:13:44;34.20;84.40
19974;DHT22;10148;47.694;9.442;2022-07-18T14:16:09;34.60;82.00
19974;DHT22;10148;47.694;9.442;2022-07-18T14:18:35;34.60;80.00
19974;DHT22;10148;47.694;9.442;2022-07-18T14:21:01;34.60;80.50
19974;DHT22;10148;47.694;9.442;2022-07-18T14:23:26;34.70;78.20
19974;DHT22;10148;47.694;9.442;2022-07-18T14:25:52;34.80;78.80
19974;DHT22;10148;47.694;9.442;2022-07-18T14:28:17;34.80;76.20
19974;DHT22;10148;47.694;9.442;2022-07-18T14:30:43;34.90;73.50
19974;DHT22;10148;47.694;9.442;2022-07-18T14:33:09;34.70;70.50
19974;DHT22;10148;47.694;9.442;2022-07-18T14:35:34;34.50;70.80
19974;DHT22;10148;47.694;9.442;2022-07-18T14:38:00;34.50;71.90
19974;DHT22;10148;47.694;9.442;2022-07-18T14:40:25;34.80;71.10
19974;DHT22;10148;47.694;9.442;2022-07-18T14:42:51;35.20;72.40
19974;DHT22;10148;47.694;9.442;2022-07-18T14:45:17;35.40;71.70
19974;DHT22;10148;47.694;9.442;2022-07-18T14:47:42;35.70;70.90
19974;DHT22;10148;47.694;9.442;2022-07-18T14:50:09;35.90;69.40
19974;DHT22;10148;47.694;9.442;2022-07-18T14:52:36;36.20;69.80
19974;DHT22;10148;47.694;9.442;2022-07-18T14:55:02;36.40;68.60
19974;DHT22;10148;47.694;9.442;2022-07-18T14:57:28;36.60;69.10
19974;DHT22;10148;47.694;9.442;2022-07-18T14:59:53;36.70;68.00
19974;DHT22;10148;47.694;9.442;2022-07-18T15:02:19;36.80;67.00
19974;DHT22;10148;47.694;9.442;2022-07-18T15:04:44;36.80;66.80
19974;DHT22;10148;47.694;9.442;2022-07-18T15:07:10;36.80;67.00
19974;DHT22;10148;47.694;9.442;2022-07-18T15:09:36;37.00;66.20
19974;DHT22;10148;47.694;9.442;2022-07-18T15:12:02;36.90;64.10
19974;DHT22;10148;47.694;9.442;2022-07-18T15:14:28;36.90;66.60
19974;DHT22;10148;47.694;9.442;2022-07-18T15:16:53;36.20;67.40
19974;DHT22;10148;47.694;9.442;2022-07-18T15:19:19;35.90;67.80
19974;DHT22;10148;47.694;9.442;2022-07-18T15:21:45;36.00;66.30
19974;DHT22;10148;47.694;9.442;2022-07-18T15:24:10;36.20;66.60
19974;DHT22;10148;47.694;9.442;2022-07-18T15:26:36;36.50;64.90
19974;DHT22;10148;47.694;9.442;2022-07-18T15:29:01;36.50;64.80
19974;DHT22;10148;47.694;9.442;2022-07-18T15:31:27;36.40;63.90
19974;DHT22;10148;47.694;9.442;2022-07-18T15:33:52;36.30;63.60
19974;DHT22;10148;47.694;9.442;2022-07-18T15:36:18;36.50;63.60
19974;DHT22;10148;47.694;9.442;2022-07-18T15:38:43;36.60;63.50
19974;DHT22;10148;47.694;9.442;2022-07-18T15:41:11;36.40;63.60
19974;DHT22;10148;47.694;9.442;2022-07-18T15:43:38;36.60;64.20
19974;DHT22;10148;47.694;9.442;2022-07-18T15:46:04;36.70;64.00
19974;DHT22;10148;47.694;9.442;2022-07-18T15:48:30;36.80;64.50
19974;DHT22;10148;47.694;9.442;2022-07-18T15:50:55;37.00;64.70
19974;DHT22;10148;47.694;9.442;2022-07-18T15:53:21;37.00;63.20
19974;DHT22;10148;47.694;9.442;2022-07-18T15:55:46;36.90;62.70
19974;DHT22;10148;47.694;9.442;2022-07-18T15:58:12;37.10;63.10
19974;DHT22;10148;47.694;9.442;2022-07-18T16:00:38;37.20;63.60
19974;DHT22;10148;47.694;9.442;2022-07-18T16:03:03;37.20;63.10
19974;DHT22;10148;47.694;9.442;2022-07-18T16:05:29;37.20;62.70
19974;DHT22;10148;47.694;9.442;2022-07-18T16:07:54;37.20;66.50
19974;DHT22;10148;47.694;9.442;2022-07-18T16:10:20;37.30;65.70
19974;DHT22;10148;47.694;9.442;2022-07-18T16:12:46;37.30;63.70
19974;DHT22;10148;47.694;9.442;2022-07-18T16:15:12;37.10;61.30
19974;DHT22;10148;47.694;9.442;2022-07-18T16:17:38;37.30;60.90